sensor_id;sensor_type;location;lat;lon;timestamp;P1;durP1;ratioP1;P2;durP2;ratioP2
58412;SDS011;44209;52.952;6.790;2023-10-08T00:01:49;2.72;;;1.38;;
58412;SDS011;44209;52.952;6.790;2023-10-08T00:04:16;3.30;;;1.50;;
58412;SDS011;44209;52.952;6.790;2023-10-08T00:06:45;2.58;;;1.30;;
58412;SDS011;44209;52.952;6.790;2023-10-08T00:09:11;3.03;;;1.30;;
58412;SDS011;44209;52.952;6.790;2023-10-08T00:11:37;2.75;;;1.30;;
58412;SDS011;44209;52.952;6.790;2023-10-08T00:14:05;3.70;;;1.40;;
58412;SDS011;44209;52.952;6.790;2023-10-08T00:16:36;3.58;;;1.50;;
58412;SDS011;44209;52.952;6.790;2023-10-08T00:19:08;2.38;;;1.40;;
58412;SDS011;44209;52.952;6.790;2023-10-08T00:21:37;1.60;;;1.50;;
58412;SDS011;44209;52.952;6.790;2023-10-08T00:24:05;2.15;;;1.45;;
58412;SDS011;44209;52.952;6.790;2023-10-08T00:26:32;1.90;;;1.42;;
58412;SDS011;44209;52.952;6.790;2023-10-08T00:29:04;2.67;;;1.38;;
58412;SDS011;44209;52.952;6.790;2023-10-08T00:31:46;1.77;;;1.60;;
58412;SDS011;44209;52.952;6.790;2023-10-08T00:34:14;2.65;;;1.70;;
58412;SDS011;44209;52.952;6.790;2023-10-08T00:36:45;1.98;;;1.48;;
58412;SDS011;44209;52.952;6.790;2023-10-08T00:39:13;2.95;;;1.50;;
58412;SDS011;44209;52.952;6.790;2023-10-08T00:41:43;2.97;;;1.63;;
58412;SDS011;44209;52.952;6.790;2023-10-08T00:44:10;1.63;;;1.35;;
58412;SDS011;44209;52.952;6.790;2023-10-08T00:46:42;1.48;;;1.33;;
58412;SDS011;44209;52.952;6.790;2023-10-08T00:49:25;1.92;;;1.30;;
58412;SDS011;44209;52.952;6.790;2023-10-08T00:52:10;1.42;;;1.10;;
58412;SDS011;44209;52.952;6.790;2023-10-08T00:54:40;1.70;;;1.15;;
58412;SDS011;44209;52.952;6.790;2023-10-08T00:57:26;1.85;;;1.30;;
58412;SDS011;44209;52.952;6.790;2023-10-08T00:59:54;1.83;;;1.00;;
58412;SDS011;44209;52.952;6.790;2023-10-08T01:02:30;1.92;;;1.10;;
58412;SDS011;44209;52.952;6.790;2023-10-08T01:05:12;2.10;;;1.35;;
58412;SDS011;44209;52.952;6.790;2023-10-08T01:07:39;1.27;;;1.17;;
58412;SDS011;44209;52.952;6.790;2023-10-08T01:10:09;2.78;;;1.30;;
58412;SDS011;44209;52.952;6.790;2023-10-08T01:12:38;2.17;;;1.55;;
58412;SDS011;44209;52.952;6.790;2023-10-08T01:15:19;2.25;;;0.95;;
58412;SDS011;44209;52.952;6.790;2023-10-08T01:17:55;1.38;;;1.25;;
58412;SDS011;44209;52.952;6.790;2023-10-08T01:20:29;1.45;;;1.35;;
58412;SDS011;44209;52.952;6.790;2023-10-08T01:23:15;2.83;;;1.10;;
58412;SDS011;44209;52.952;6.790;2023-10-08T01:25:47;1.48;;;1.35;;
58412;SDS011;44209;52.952;6.790;2023-10-08T01:28:20;3.58;;;1.50;;
58412;SDS011;44209;52.952;6.790;2023-10-08T01:30:54;1.98;;;1.40;;
58412;SDS011;44209;52.952;6.790;2023-10-08T01:33:22;1.67;;;1.38;;
58412;SDS011;44209;52.952;6.790;2023-10-08T01:35:53;2.65;;;1.25;;
58412;SDS011;44209;52.952;6.790;2023-10-08T01:38:19;1.92;;;1.35;;
58412;SDS011;44209;52.952;6.790;2023-10-08T01:40:52;1.38;;;1.27;;
58412;SDS011;44209;52.952;6.790;2023-10-08T01:43:18;2.78;;;1.30;;
58412;SDS011;44209;52.952;6.790;2023-10-08T01:45:45;3.17;;;1.70;;
58412;SDS011;44209;52.952;6.790;2023-10-08T01:48:16;1.30;;;1.20;;
58412;SDS011;44209;52.952;6.790;2023-10-08T01:50:46;1.65;;;1.20;;
58412;SDS011;44209;52.952;6.790;2023-10-08T01:53:13;2.67;;;1.30;;
58412;SDS011;44209;52.952;6.790;2023-10-08T01:55:41;3.28;;;1.20;;
58412;SDS011;44209;52.952;6.790;2023-10-08T01:58:14;1.60;;;1.10;;
58412;SDS011;44209;52.952;6.790;2023-10-08T02:00:48;2.42;;;1.23;;
58412;SDS011;44209;52.952;6.790;2023-10-08T02:03:15;2.33;;;1.40;;
58412;SDS011;44209;52.952;6.790;2023-10-08T02:05:43;2.72;;;1.65;;
58412;SDS011;44209;52.952;6.790;2023-10-08T02:08:10;4.20;;;1.60;;
58412;SDS011;44209;52.952;6.790;2023-10-08T02:10:38;3.08;;;1.50;;
58412;SDS011;44209;52.952;6.790;2023-10-08T02:13:05;3.42;;;1.48;;
58412;SDS011;44209;52.952;6.790;2023-10-08T02:15:33;3.63;;;1.25;;
58412;SDS011;44209;52.952;6.790;2023-10-08T02:18:06;2.13;;;1.13;;
58412;SDS011;44209;52.952;6.790;2023-10-08T02:20:32;3.58;;;1.00;;
58412;SDS011;44209;52.952;6.790;2023-10-08T02:22:58;1.73;;;1.08;;
58412;SDS011;44209;52.952;6.790;2023-10-08T02:25:25;3.45;;;1.08;;
58412;SDS011;44209;52.952;6.790;2023-10-08T02:27:51;2.88;;;1.00;;
58412;SDS011;44209;52.952;6.790;2023-10-08T02:30:16;3.78;;;0.95;;
58412;SDS011;44209;52.952;6.790;2023-10-08T02:32:43;3.40;;;1.10;;
58412;SDS011;44209;52.952;6.790;2023-10-08T02:35:09;1.63;;;0.80;;
58412;SDS011;44209;52.952;6.790;2023-10-08T02:37:39;1.17;;;1.00;;
58412;SDS011;44209;52.952;6.790;2023-10-08T02:40:06;3.13;;;1.00;;
58412;SDS011;44209;52.952;6.790;2023-10-08T02:42:41;3.72;;;1.23;;
58412;SDS011;44209;52.952;6.790;2023-10-08T02:45:09;1.27;;;1.02;;
58412;SDS011;44209;52.952;6.790;2023-10-08T02:47:42;3.10;;;1.33;;
58412;SDS011;44209;52.952;6.790;2023-10-08T02:50:11;2.80;;;1.15;;
58412;SDS011;44209;52.952;6.790;2023-10-08T02:52:42;2.63;;;1.00;;
58412;SDS011;44209;52.952;6.790;2023-10-08T02:55:09;3.90;;;1.02;;
58412;SDS011;44209;52.952;6.790;2023-10-08T02:57:49;3.10;;;1.10;;
58412;SDS011;44209;52.952;6.790;2023-10-08T03:00:15;2.00;;;1.15;;
58412;SDS011;44209;52.952;6.790;2023-10-08T03:02:44;3.83;;;1.52;;
58412;SDS011;44209;52.952;6.790;2023-10-08T03:05:11;1.30;;;0.98;;
58412;SDS011;44209;52.952;6.790;2023-10-08T03:07:41;2.72;;;1.15;;
58412;SDS011;44209;52.952;6.790;2023-10-08T03:10:07;2.00;;;1.05;;
58412;SDS011;44209;52.952;6.790;2023-10-08T03:12:43;3.75;;;1.30;;
58412;SDS011;44209;52.952;6.790;2023-10-08T03:15:12;4.45;;;1.10;;
58412;SDS011;44209;52.952;6.790;2023-10-08T03:17:40;4.70;;;1.10;;
58412;SDS011;44209;52.952;6.790;2023-10-08T03:20:17;2.63;;;1.17;;
58412;SDS011;44209;52.952;6.790;2023-10-08T03:23:01;2.25;;;1.17;;
58412;SDS011;44209;52.952;6.790;2023-10-08T03:25:31;1.77;;;0.98;;
58412;SDS011;44209;52.952;6.790;2023-10-08T03:28:06;4.05;;;1.30;;
58412;SDS011;44209;52.952;6.790;2023-10-08T03:30:37;3.58;;;1.20;;
58412;SDS011;44209;52.952;6.790;2023-10-08T03:33:15;3.78;;;1.10;;
58412;SDS011;44209;52.952;6.790;2023-10-08T03:35:49;1.65;;;1.10;;
58412;SDS011;44209;52.952;6.790;2023-10-08T03:38:20;3.22;;;1.30;;
58412;SDS011;44209;52.952;6.790;2023-10-08T03:40:56;3.78;;;1.20;;
58412;SDS011;44209;52.952;6.790;2023-10-08T03:43:34;3.20;;;1.20;;
58412;SDS011;44209;52.952;6.790;2023-10-08T03:46:08;3.72;;;1.20;;
58412;SDS011;44209;52.952;6.790;2023-10-08T03:48:41;4.32;;;1.55;;
58412;SDS011;44209;52.952;6.790;2023-10-08T03:51:10;2.83;;;1.30;;
58412;SDS011;44209;52.952;6.790;2023-10-08T03:53:40;4.03;;;1.92;;
58412;SDS011;44209;52.952;6.790;2023-10-08T03:56:27;1.98;;;1.33;;
58412;SDS011;44209;52.952;6.790;2023-10-08T03:58:57;2.95;;;1.27;;
58412;SDS011;44209;52.952;6.790;2023-10-08T04:03:56;1.77;;;1.20;;
58412;SDS011;44209;52.952;6.790;2023-10-08T04:06:23;5.00;;;1.67;;
58412;SDS011;44209;52.952;6.790;2023-10-08T04:09:02;3.15;;;1.50;;
58412;SDS011;44209;52.952;6.790;2023-10-08T04:11:38;2.67;;;1.67;;
58412;SDS011;44209;52.952;6.790;2023-10-08T04:14:16;3.28;;;1.50;;
58412;SDS011;44209;52.952;6.790;2023-10-08T04:16:46;4.40;;;1.42;;
58412;SDS011;44209;52.952;6.790;2023-10-08T04:19:16;3.63;;;1.80;;
58412;SDS011;44209;52.952;6.790;2023-10-08T04:21:50;3.00;;;1.60;;
58412;SDS011;44209;52.952;6.790;2023-10-08T04:24:25;2.88;;;1.33;;
58412;SDS011;44209;52.952;6.790;2023-10-08T04:26:59;3.83;;;1.38;;
58412;SDS011;44209;52.952;6.790;2023-10-08T04:29:28;2.95;;;1.50;;
58412;SDS011;44209;52.952;6.790;2023-10-08T04:32:00;4.78;;;1.50;;
58412;SDS011;44209;52.952;6.790;2023-10-08T04:34:28;3.22;;;1.77;;
58412;SDS011;44209;52.952;6.790;2023-10-08T04:36:54;4.10;;;1.77;;
58412;SDS011;44209;52.952;6.790;2023-10-08T04:39:23;6.20;;;1.70;;
58412;SDS011;44209;52.952;6.790;2023-10-08T04:41:56;3.10;;;1.80;;
58412;SDS011;44209;52.952;6.790;2023-10-08T04:44:35;4.82;;;1.73;;
58412;SDS011;44209;52.952;6.790;2023-10-08T04:47:04;3.72;;;1.85;;
58412;SDS011;44209;52.952;6.790;2023-10-08T04:49:32;4.97;;;2.08;;
58412;SDS011;44209;52.952;6.790;2023-10-08T04:52:00;4.22;;;1.90;;
58412;SDS011;44209;52.952;6.790;2023-10-08T04:54:40;4.57;;;1.77;;
58412;SDS011;44209;52.952;6.790;2023-10-08T04:57:16;3.53;;;1.70;;
58412;SDS011;44209;52.952;6.790;2023-10-08T04:59:42;3.58;;;1.65;;
58412;SDS011;44209;52.952;6.790;2023-10-08T05:02:09;3.42;;;1.70;;
58412;SDS011;44209;52.952;6.790;2023-10-08T05:05:05;3.47;;;1.90;;
58412;SDS011;44209;52.952;6.790;2023-10-08T05:07:36;3.67;;;1.63;;
58412;SDS011;44209;52.952;6.790;2023-10-08T05:10:26;3.33;;;1.63;;
58412;SDS011;44209;52.952;6.790;2023-10-08T05:12:52;3.15;;;1.75;;
58412;SDS011;44209;52.952;6.790;2023-10-08T05:15:31;3.47;;;1.80;;
58412;SDS011;44209;52.952;6.790;2023-10-08T05:18:31;3.88;;;2.00;;
58412;SDS011;44209;52.952;6.790;2023-10-08T05:21:15;3.50;;;1.77;;
58412;SDS011;44209;52.952;6.790;2023-10-08T05:24:05;5.90;;;1.90;;
58412;SDS011;44209;52.952;6.790;2023-10-08T05:26:41;3.75;;;2.10;;
58412;SDS011;44209;52.952;6.790;2023-10-08T05:29:09;2.38;;;2.03;;
58412;SDS011;44209;52.952;6.790;2023-10-08T05:32:00;4.00;;;2.17;;
58412;SDS011;44209;52.952;6.790;2023-10-08T05:34:44;2.30;;;1.60;;
58412;SDS011;44209;52.952;6.790;2023-10-08T05:37:36;3.33;;;2.17;;
58412;SDS011;44209;52.952;6.790;2023-10-08T05:40:07;3.20;;;2.00;;
58412;SDS011;44209;52.952;6.790;2023-10-08T05:42:46;4.45;;;1.77;;
58412;SDS011;44209;52.952;6.790;2023-10-08T05:45:12;2.97;;;2.53;;
58412;SDS011;44209;52.952;6.790;2023-10-08T05:47:38;4.20;;;1.90;;
58412;SDS011;44209;52.952;6.790;2023-10-08T05:50:06;4.45;;;2.10;;
58412;SDS011;44209;52.952;6.790;2023-10-08T05:52:41;4.60;;;2.10;;
58412;SDS011;44209;52.952;6.790;2023-10-08T05:55:27;7.05;;;2.05;;
58412;SDS011;44209;52.952;6.790;2023-10-08T05:58:02;3.80;;;2.00;;
58412;SDS011;44209;52.952;6.790;2023-10-08T06:00:44;3.30;;;2.03;;
58412;SDS011;44209;52.952;6.790;2023-10-08T06:03:26;3.78;;;2.35;;
58412;SDS011;44209;52.952;6.790;2023-10-08T06:06:01;5.32;;;2.30;;
58412;SDS011;44209;52.952;6.790;2023-10-08T06:08:36;5.10;;;2.58;;
58412;SDS011;44209;52.952;6.790;2023-10-08T06:11:38;3.42;;;2.50;;
58412;SDS011;44209;52.952;6.790;2023-10-08T06:14:10;5.43;;;2.65;;
58412;SDS011;44209;52.952;6.790;2023-10-08T06:16:45;3.08;;;2.17;;
58412;SDS011;44209;52.952;6.790;2023-10-08T06:19:12;4.18;;;2.28;;
58412;SDS011;44209;52.952;6.790;2023-10-08T06:21:40;3.33;;;2.30;;
58412;SDS011;44209;52.952;6.790;2023-10-08T06:24:07;3.63;;;1.92;;
58412;SDS011;44209;52.952;6.790;2023-10-08T06:26:42;4.05;;;2.55;;
58412;SDS011;44209;52.952;6.790;2023-10-08T06:29:14;3.22;;;2.30;;
58412;SDS011;44209;52.952;6.790;2023-10-08T06:31:58;4.47;;;2.25;;
58412;SDS011;44209;52.952;6.790;2023-10-08T06:34:30;3.78;;;2.15;;
58412;SDS011;44209;52.952;6.790;2023-10-08T06:36:58;3.58;;;1.98;;
58412;SDS011;44209;52.952;6.790;2023-10-08T06:39:25;4.32;;;2.08;;
58412;SDS011;44209;52.952;6.790;2023-10-08T06:41:58;8.00;;;1.95;;
58412;SDS011;44209;52.952;6.790;2023-10-08T06:44:25;5.38;;;2.40;;
58412;SDS011;44209;52.952;6.790;2023-10-08T06:46:52;5.85;;;2.00;;
58412;SDS011;44209;52.952;6.790;2023-10-08T06:49:20;4.82;;;2.00;;
58412;SDS011;44209;52.952;6.790;2023-10-08T06:51:49;4.80;;;1.83;;
58412;SDS011;44209;52.952;6.790;2023-10-08T06:54:16;7.32;;;2.35;;
58412;SDS011;44209;52.952;6.790;2023-10-08T06:56:43;5.38;;;2.10;;
58412;SDS011;44209;52.952;6.790;2023-10-08T06:59:17;2.67;;;1.67;;
58412;SDS011;44209;52.952;6.790;2023-10-08T07:01:43;4.00;;;1.70;;
58412;SDS011;44209;52.952;6.790;2023-10-08T07:04:16;6.70;;;1.70;;
58412;SDS011;44209;52.952;6.790;2023-10-08T07:06:44;3.35;;;1.90;;
58412;SDS011;44209;52.952;6.790;2023-10-08T07:09:11;4.05;;;1.63;;
58412;SDS011;44209;52.952;6.790;2023-10-08T07:11:54;2.70;;;1.73;;
58412;SDS011;44209;52.952;6.790;2023-10-08T07:14:25;3.13;;;1.63;;
58412;SDS011;44209;52.952;6.790;2023-10-08T07:16:55;6.87;;;2.33;;
58412;SDS011;44209;52.952;6.790;2023-10-08T07:19:24;4.03;;;1.60;;
58412;SDS011;44209;52.952;6.790;2023-10-08T07:21:58;4.65;;;1.90;;
58412;SDS011;44209;52.952;6.790;2023-10-08T07:24:28;2.10;;;1.30;;
58412;SDS011;44209;52.952;6.790;2023-10-08T07:26:56;3.80;;;1.67;;
58412;SDS011;44209;52.952;6.790;2023-10-08T07:29:21;8.02;;;1.90;;
58412;SDS011;44209;52.952;6.790;2023-10-08T07:31:47;2.60;;;1.55;;
58412;SDS011;44209;52.952;6.790;2023-10-08T07:34:18;4.70;;;2.08;;
58412;SDS011;44209;52.952;6.790;2023-10-08T07:36:51;4.28;;;1.50;;
58412;SDS011;44209;52.952;6.790;2023-10-08T07:39:19;4.57;;;1.52;;
58412;SDS011;44209;52.952;6.790;2023-10-08T07:41:51;5.95;;;1.92;;
58412;SDS011;44209;52.952;6.790;2023-10-08T07:44:22;5.05;;;1.63;;
58412;SDS011;44209;52.952;6.790;2023-10-08T07:46:52;4.85;;;1.73;;
58412;SDS011;44209;52.952;6.790;2023-10-08T07:49:21;4.18;;;1.60;;
58412;SDS011;44209;52.952;6.790;2023-10-08T07:51:56;6.55;;;1.63;;
58412;SDS011;44209;52.952;6.790;2023-10-08T07:54:23;6.10;;;1.50;;
58412;SDS011;44209;52.952;6.790;2023-10-08T07:56:53;8.57;;;1.92;;
58412;SDS011;44209;52.952;6.790;2023-10-08T07:59:33;6.35;;;1.80;;
58412;SDS011;44209;52.952;6.790;2023-10-08T08:02:03;3.70;;;1.75;;
58412;SDS011;44209;52.952;6.790;2023-10-08T08:04:38;8.95;;;1.80;;
58412;SDS011;44209;52.952;6.790;2023-10-08T08:07:15;4.47;;;1.73;;
58412;SDS011;44209;52.952;6.790;2023-10-08T08:09:42;4.82;;;1.48;;
58412;SDS011;44209;52.952;6.790;2023-10-08T08:12:15;4.82;;;1.90;;
58412;SDS011;44209;52.952;6.790;2023-10-08T08:14:46;9.18;;;2.38;;
58412;SDS011;44209;52.952;6.790;2023-10-08T08:17:13;7.07;;;1.95;;
58412;SDS011;44209;52.952;6.790;2023-10-08T08:19:43;5.47;;;1.65;;
58412;SDS011;44209;52.952;6.790;2023-10-08T08:22:11;7.78;;;1.75;;
58412;SDS011;44209;52.952;6.790;2023-10-08T08:24:56;5.05;;;1.55;;
58412;SDS011;44209;52.952;6.790;2023-10-08T08:27:40;6.78;;;1.75;;
58412;SDS011;44209;52.952;6.790;2023-10-08T08:30:11;6.38;;;2.00;;
58412;SDS011;44209;52.952;6.790;2023-10-08T08:32:41;6.28;;;1.60;;
58412;SDS011;44209;52.952;6.790;2023-10-08T08:35:12;5.30;;;1.83;;
58412;SDS011;44209;52.952;6.790;2023-10-08T08:37:41;5.35;;;1.70;;
58412;SDS011;44209;52.952;6.790;2023-10-08T08:40:08;6.65;;;1.60;;
58412;SDS011;44209;52.952;6.790;2023-10-08T08:42:35;6.60;;;1.90;;
58412;SDS011;44209;52.952;6.790;2023-10-08T08:45:03;4.60;;;1.50;;
58412;SDS011;44209;52.952;6.790;2023-10-08T08:47:37;7.10;;;1.90;;
58412;SDS011;44209;52.952;6.790;2023-10-08T08:50:06;9.00;;;2.05;;
58412;SDS011;44209;52.952;6.790;2023-10-08T08:52:39;5.00;;;1.70;;
58412;SDS011;44209;52.952;6.790;2023-10-08T08:55:05;5.00;;;1.67;;
58412;SDS011;44209;52.952;6.790;2023-10-08T08:57:41;5.30;;;1.50;;
58412;SDS011;44209;52.952;6.790;2023-10-08T09:00:11;6.53;;;2.00;;
58412;SDS011;44209;52.952;6.790;2023-10-08T09:02:39;6.50;;;2.00;;
58412;SDS011;44209;52.952;6.790;2023-10-08T09:05:06;3.13;;;1.73;;
58412;SDS011;44209;52.952;6.790;2023-10-08T09:10:28;5.20;;;1.48;;
58412;SDS011;44209;52.952;6.790;2023-10-08T09:12:55;5.65;;;1.83;;
58412;SDS011;44209;52.952;6.790;2023-10-08T09:15:24;4.28;;;1.40;;
58412;SDS011;44209;52.952;6.790;2023-10-08T09:17:53;6.25;;;1.55;;
58412;SDS011;44209;52.952;6.790;2023-10-08T09:20:20;5.10;;;1.50;;
58412;SDS011;44209;52.952;6.790;2023-10-08T09:22:46;8.13;;;2.10;;
58412;SDS011;44209;52.952;6.790;2023-10-08T09:25:32;3.38;;;1.23;;
58412;SDS011;44209;52.952;6.790;2023-10-08T09:27:58;5.75;;;1.75;;
58412;SDS011;44209;52.952;6.790;2023-10-08T09:30:24;5.80;;;1.67;;
58412;SDS011;44209;52.952;6.790;2023-10-08T09:32:51;5.93;;;1.70;;
58412;SDS011;44209;52.952;6.790;2023-10-08T09:35:17;5.93;;;1.70;;
58412;SDS011;44209;52.952;6.790;2023-10-08T09:37:44;5.80;;;1.40;;
58412;SDS011;44209;52.952;6.790;2023-10-08T09:40:10;3.28;;;1.50;;
58412;SDS011;44209;52.952;6.790;2023-10-08T09:42:40;6.32;;;1.80;;
58412;SDS011;44209;52.952;6.790;2023-10-08T09:45:07;5.80;;;1.80;;
58412;SDS011;44209;52.952;6.790;2023-10-08T09:47:38;4.50;;;1.60;;
58412;SDS011;44209;52.952;6.790;2023-10-08T09:50:09;5.68;;;1.63;;
58412;SDS011;44209;52.952;6.790;2023-10-08T09:55:36;4.60;;;1.48;;
58412;SDS011;44209;52.952;6.790;2023-10-08T09:58:02;5.72;;;1.80;;
58412;SDS011;44209;52.952;6.790;2023-10-08T10:00:29;8.27;;;1.77;;
58412;SDS011;44209;52.952;6.790;2023-10-08T10:02:57;6.45;;;1.70;;
58412;SDS011;44209;52.952;6.790;2023-10-08T10:05:30;8.83;;;1.73;;
58412;SDS011;44209;52.952;6.790;2023-10-08T10:07:57;6.28;;;1.98;;
58412;SDS011;44209;52.952;6.790;2023-10-08T10:10:27;6.13;;;2.00;;
58412;SDS011;44209;52.952;6.790;2023-10-08T10:13:06;7.78;;;1.67;;
58412;SDS011;44209;52.952;6.790;2023-10-08T10:15:38;7.20;;;1.85;;
58412;SDS011;44209;52.952;6.790;2023-10-08T10:18:14;6.20;;;1.70;;
58412;SDS011;44209;52.952;6.790;2023-10-08T10:20:51;6.65;;;2.17;;
58412;SDS011;44209;52.952;6.790;2023-10-08T10:26:05;6.80;;;1.70;;
58412;SDS011;44209;52.952;6.790;2023-10-08T10:31:37;7.30;;;1.75;;
58412;SDS011;44209;52.952;6.790;2023-10-08T10:34:06;10.75;;;2.20;;
58412;SDS011;44209;52.952;6.790;2023-10-08T10:36:38;4.80;;;1.33;;
58412;SDS011;44209;52.952;6.790;2023-10-08T10:39:09;6.28;;;1.90;;
58412;SDS011;44209;52.952;6.790;2023-10-08T10:41:42;5.10;;;1.60;;
58412;SDS011;44209;52.952;6.790;2023-10-08T10:44:10;7.50;;;2.08;;
58412;SDS011;44209;52.952;6.790;2023-10-08T10:46:39;6.85;;;1.77;;
58412;SDS011;44209;52.952;6.790;2023-10-08T10:49:08;11.32;;;2.20;;
58412;SDS011;44209;52.952;6.790;2023-10-08T10:51:49;4.25;;;1.80;;
58412;SDS011;44209;52.952;6.790;2023-10-08T10:54:28;8.70;;;1.92;;
58412;SDS011;44209;52.952;6.790;2023-10-08T10:57:01;5.60;;;1.60;;
58412;SDS011;44209;52.952;6.790;2023-10-08T10:59:30;11.07;;;1.98;;
58412;SDS011;44209;52.952;6.790;2023-10-08T11:02:02;10.18;;;2.13;;
58412;SDS011;44209;52.952;6.790;2023-10-08T11:04:55;11.00;;;2.03;;
58412;SDS011;44209;52.952;6.790;2023-10-08T11:07:32;4.18;;;1.70;;
58412;SDS011;44209;52.952;6.790;2023-10-08T11:09:59;7.00;;;1.63;;
58412;SDS011;44209;52.952;6.790;2023-10-08T11:12:26;6.60;;;1.63;;
58412;SDS011;44209;52.952;6.790;2023-10-08T11:15:10;8.25;;;1.80;;
58412;SDS011;44209;52.952;6.790;2023-10-08T11:17:41;6.88;;;1.77;;
58412;SDS011;44209;52.952;6.790;2023-10-08T11:20:25;4.93;;;1.70;;
58412;SDS011;44209;52.952;6.790;2023-10-08T11:22:52;5.32;;;1.85;;
58412;SDS011;44209;52.952;6.790;2023-10-08T11:25:23;8.80;;;1.90;;
58412;SDS011;44209;52.952;6.790;2023-10-08T11:27:56;6.50;;;1.95;;
58412;SDS011;44209;52.952;6.790;2023-10-08T11:30:34;5.65;;;1.67;;
58412;SDS011;44209;52.952;6.790;2023-10-08T11:33:00;10.48;;;1.95;;
58412;SDS011;44209;52.952;6.790;2023-10-08T11:35:26;9.38;;;2.25;;
58412;SDS011;44209;52.952;6.790;2023-10-08T11:37:57;6.53;;;2.33;;
58412;SDS011;44209;52.952;6.790;2023-10-08T11:40:26;7.40;;;1.73;;
58412;SDS011;44209;52.952;6.790;2023-10-08T11:43:13;8.02;;;2.15;;
58412;SDS011;44209;52.952;6.790;2023-10-08T11:45:44;5.68;;;1.85;;
58412;SDS011;44209;52.952;6.790;2023-10-08T11:48:16;5.72;;;1.80;;
58412;SDS011;44209;52.952;6.790;2023-10-08T11:50:47;5.67;;;2.00;;
58412;SDS011;44209;52.952;6.790;2023-10-08T11:53:15;4.30;;;1.73;;
58412;SDS011;44209;52.952;6.790;2023-10-08T11:55:44;5.30;;;1.63;;
58412;SDS011;44209;52.952;6.790;2023-10-08T11:58:13;4.43;;;1.80;;
58412;SDS011;44209;52.952;6.790;2023-10-08T12:00:43;6.95;;;1.63;;
58412;SDS011;44209;52.952;6.790;2023-10-08T12:03:12;5.10;;;1.80;;
58412;SDS011;44209;52.952;6.790;2023-10-08T12:05:43;7.10;;;1.88;;
58412;SDS011;44209;52.952;6.790;2023-10-08T12:08:16;7.60;;;2.15;;
58412;SDS011;44209;52.952;6.790;2023-10-08T12:10:43;6.05;;;1.85;;
58412;SDS011;44209;52.952;6.790;2023-10-08T12:13:11;5.38;;;1.95;;
58412;SDS011;44209;52.952;6.790;2023-10-08T12:15:37;4.85;;;1.60;;
58412;SDS011;44209;52.952;6.790;2023-10-08T12:18:09;7.72;;;1.80;;
58412;SDS011;44209;52.952;6.790;2023-10-08T12:20:55;6.85;;;1.90;;
58412;SDS011;44209;52.952;6.790;2023-10-08T12:23:21;6.65;;;1.70;;
58412;SDS011;44209;52.952;6.790;2023-10-08T12:25:54;5.20;;;1.80;;
58412;SDS011;44209;52.952;6.790;2023-10-08T12:28:21;5.72;;;1.50;;
58412;SDS011;44209;52.952;6.790;2023-10-08T12:30:50;5.43;;;1.65;;
58412;SDS011;44209;52.952;6.790;2023-10-08T12:33:24;5.00;;;1.50;;
58412;SDS011;44209;52.952;6.790;2023-10-08T12:35:51;4.82;;;1.60;;
58412;SDS011;44209;52.952;6.790;2023-10-08T12:38:24;4.68;;;1.80;;
58412;SDS011;44209;52.952;6.790;2023-10-08T12:40:53;6.93;;;1.88;;
58412;SDS011;44209;52.952;6.790;2023-10-08T12:43:23;4.20;;;1.58;;
58412;SDS011;44209;52.952;6.790;2023-10-08T12:45:52;9.80;;;1.65;;
58412;SDS011;44209;52.952;6.790;2023-10-08T12:48:25;11.63;;;1.98;;
58412;SDS011;44209;52.952;6.790;2023-10-08T12:50:55;4.53;;;1.50;;
58412;SDS011;44209;52.952;6.790;2023-10-08T12:53:26;4.13;;;1.60;;
58412;SDS011;44209;52.952;6.790;2023-10-08T12:55:59;5.80;;;1.80;;
58412;SDS011;44209;52.952;6.790;2023-10-08T12:58:31;5.53;;;1.50;;
58412;SDS011;44209;52.952;6.790;2023-10-08T13:01:09;5.85;;;1.80;;
58412;SDS011;44209;52.952;6.790;2023-10-08T13:03:39;6.97;;;1.60;;
58412;SDS011;44209;52.952;6.790;2023-10-08T13:06:12;6.47;;;2.00;;
58412;SDS011;44209;52.952;6.790;2023-10-08T13:08:47;10.65;;;1.80;;
58412;SDS011;44209;52.952;6.790;2023-10-08T13:11:18;4.47;;;1.60;;
58412;SDS011;44209;52.952;6.790;2023-10-08T13:13:54;5.65;;;2.33;;
58412;SDS011;44209;52.952;6.790;2023-10-08T13:16:22;9.25;;;2.00;;
58412;SDS011;44209;52.952;6.790;2023-10-08T13:18:49;5.40;;;1.70;;
58412;SDS011;44209;52.952;6.790;2023-10-08T13:21:15;5.47;;;1.52;;
58412;SDS011;44209;52.952;6.790;2023-10-08T13:23:44;7.93;;;2.00;;
58412;SDS011;44209;52.952;6.790;2023-10-08T13:26:09;9.48;;;2.47;;
58412;SDS011;44209;52.952;6.790;2023-10-08T13:28:42;7.05;;;2.00;;
58412;SDS011;44209;52.952;6.790;2023-10-08T13:31:09;6.82;;;2.13;;
58412;SDS011;44209;52.952;6.790;2023-10-08T13:33:36;7.63;;;1.90;;
58412;SDS011;44209;52.952;6.790;2023-10-08T13:36:05;7.18;;;1.60;;
58412;SDS011;44209;52.952;6.790;2023-10-08T13:38:35;4.82;;;1.60;;
58412;SDS011;44209;52.952;6.790;2023-10-08T13:41:02;5.88;;;1.90;;
58412;SDS011;44209;52.952;6.790;2023-10-08T13:46:17;4.53;;;1.55;;
58412;SDS011;44209;52.952;6.790;2023-10-08T13:48:48;5.45;;;1.80;;
58412;SDS011;44209;52.952;6.790;2023-10-08T13:51:15;6.63;;;1.50;;
58412;SDS011;44209;52.952;6.790;2023-10-08T13:53:49;4.95;;;1.90;;
58412;SDS011;44209;52.952;6.790;2023-10-08T13:56:19;5.95;;;1.48;;
58412;SDS011;44209;52.952;6.790;2023-10-08T13:58:50;6.78;;;2.08;;
58412;SDS011;44209;52.952;6.790;2023-10-08T14:01:17;6.28;;;1.60;;
58412;SDS011;44209;52.952;6.790;2023-10-08T14:03:46;6.68;;;1.73;;
58412;SDS011;44209;52.952;6.790;2023-10-08T14:06:18;4.85;;;2.08;;
58412;SDS011;44209;52.952;6.790;2023-10-08T14:08:45;7.82;;;2.00;;
58412;SDS011;44209;52.952;6.790;2023-10-08T14:11:18;6.35;;;1.70;;
58412;SDS011;44209;52.952;6.790;2023-10-08T14:13:44;5.28;;;1.95;;
58412;SDS011;44209;52.952;6.790;2023-10-08T14:16:22;5.65;;;1.70;;
58412;SDS011;44209;52.952;6.790;2023-10-08T14:18:54;6.10;;;1.75;;
58412;SDS011;44209;52.952;6.790;2023-10-08T14:21:27;4.80;;;1.63;;
58412;SDS011;44209;52.952;6.790;2023-10-08T14:23:56;3.85;;;1.45;;
58412;SDS011;44209;52.952;6.790;2023-10-08T14:26:28;6.30;;;1.75;;
58412;SDS011;44209;52.952;6.790;2023-10-08T14:29:01;6.70;;;1.85;;
58412;SDS011;44209;52.952;6.790;2023-10-08T14:31:36;5.50;;;1.60;;
58412;SDS011;44209;52.952;6.790;2023-10-08T14:34:05;5.88;;;1.70;;
58412;SDS011;44209;52.952;6.790;2023-10-08T14:36:44;6.07;;;1.70;;
58412;SDS011;44209;52.952;6.790;2023-10-08T14:39:31;7.20;;;1.83;;
58412;SDS011;44209;52.952;6.790;2023-10-08T14:42:19;11.25;;;2.10;;
58412;SDS011;44209;52.952;6.790;2023-10-08T14:45:04;6.38;;;1.75;;
58412;SDS011;44209;52.952;6.790;2023-10-08T14:47:37;5.43;;;1.52;;
58412;SDS011;44209;52.952;6.790;2023-10-08T14:50:03;5.40;;;2.13;;
58412;SDS011;44209;52.952;6.790;2023-10-08T14:52:30;7.20;;;2.00;;
58412;SDS011;44209;52.952;6.790;2023-10-08T14:54:58;8.98;;;2.03;;
58412;SDS011;44209;52.952;6.790;2023-10-08T14:57:24;5.78;;;1.50;;
58412;SDS011;44209;52.952;6.790;2023-10-08T14:59:51;6.30;;;1.98;;
58412;SDS011;44209;52.952;6.790;2023-10-08T15:02:17;6.60;;;2.03;;
58412;SDS011;44209;52.952;6.790;2023-10-08T15:04:43;5.72;;;1.40;;
58412;SDS011;44209;52.952;6.790;2023-10-08T15:07:09;7.20;;;1.60;;
58412;SDS011;44209;52.952;6.790;2023-10-08T15:09:37;4.45;;;1.75;;
58412;SDS011;44209;52.952;6.790;2023-10-08T15:12:04;6.40;;;1.98;;
58412;SDS011;44209;52.952;6.790;2023-10-08T15:14:34;7.43;;;1.90;;
58412;SDS011;44209;52.952;6.790;2023-10-08T15:17:00;9.77;;;2.60;;
58412;SDS011;44209;52.952;6.790;2023-10-08T15:19:26;8.02;;;1.70;;
58412;SDS011;44209;52.952;6.790;2023-10-08T15:21:52;8.25;;;2.38;;
58412;SDS011;44209;52.952;6.790;2023-10-08T15:24:18;3.83;;;1.50;;
58412;SDS011;44209;52.952;6.790;2023-10-08T15:26:52;4.15;;;1.40;;
58412;SDS011;44209;52.952;6.790;2023-10-08T15:29:19;6.60;;;1.80;;
58412;SDS011;44209;52.952;6.790;2023-10-08T15:31:47;4.70;;;1.67;;